createdAt,value
2023-02-15T00:00:01.598Z,60.02
2023-02-15T00:01:01.540Z,62.64
2023-02-15T00:02:01.579Z,60.25
2023-02-15T00:03:01.634Z,60.76
2023-02-15T00:04:01.534Z,61.80
2023-02-15T00:05:01.532Z,61.33
2023-02-15T00:06:01.787Z,59.11
2023-02-15T00:07:01.478Z,62.42
2023-02-15T00:08:01.477Z,60.75
2023-02-15T00:09:01.460Z,59.89
2023-02-15T00:10:01.484Z,60.36
2023-02-15T00:11:01.441Z,59.66
2023-02-15T00:12:01.446Z,60.75
2023-02-15T00:13:01.432Z,59.66
2023-02-15T00:14:01.420Z,58.87
2023-02-15T00:15:01.447Z,60.25
2023-02-15T00:16:01.800Z,59.20
2023-02-15T00:17:01.403Z,58.34
2023-02-15T00:18:01.390Z,60.37
2023-02-15T00:19:01.379Z,62.10
2023-02-15T00:20:01.414Z,62.29
2023-02-15T00:21:01.362Z,58.97
2023-02-15T00:22:01.356Z,61.88
2023-02-15T00:23:01.349Z,61.51
2023-02-15T00:24:01.345Z,59.59
2023-02-15T00:25:01.358Z,58.74
2023-02-15T00:26:02.630Z,61.74
2023-02-15T00:27:01.329Z,61.80
2023-02-15T00:28:01.318Z,61.70
2023-02-15T00:29:01.316Z,60.61
2023-02-15T00:30:01.352Z,58.15
2023-02-15T00:31:01.416Z,58.85
2023-02-15T00:32:01.341Z,60.59
2023-02-15T00:33:01.269Z,59.31
2023-02-15T00:34:01.256Z,60.93
2023-02-15T00:35:01.285Z,61.15
2023-02-15T00:36:01.473Z,58.20
2023-02-15T00:37:01.293Z,62.73
2023-02-15T00:38:01.233Z,59.19
2023-02-15T00:39:01.216Z,61.87
2023-02-15T00:40:01.242Z,61.87
2023-02-15T00:41:01.222Z,58.76
2023-02-15T00:42:01.209Z,55.55
2023-02-15T00:43:01.188Z,59.21
2023-02-15T00:44:01.186Z,61.12
2023-02-15T00:45:01.182Z,60.87
2023-02-15T00:46:01.536Z,58.35
2023-02-15T00:47:01.150Z,59.96
2023-02-15T00:48:01.150Z,58.37
2023-02-15T00:49:01.144Z,59.67
2023-02-15T00:50:01.124Z,61.87
2023-02-15T00:51:01.163Z,57.03
2023-02-15T00:52:01.111Z,60.04
2023-02-15T00:53:01.112Z,58.03
2023-02-15T00:54:01.114Z,58.84
2023-02-15T00:55:01.086Z,58.56
2023-02-15T00:56:01.478Z,60.28
2023-02-15T00:57:01.079Z,61.21
2023-02-15T00:58:01.076Z,59.29
2023-02-15T00:59:01.061Z,60.66
2023-02-15T01:00:01.045Z,59.57
2023-02-15T01:01:01.058Z,59.30
2023-02-15T01:02:01.026Z,58.62
2023-02-15T01:03:01.044Z,56.68
2023-02-15T01:04:01.055Z,57.59
2023-02-15T01:05:01.028Z,58.62
2023-02-15T01:06:01.306Z,60.14
2023-02-15T01:07:01.983Z,59.45
2023-02-15T01:08:00.984Z,60.69
2023-02-15T01:09:00.973Z,61.69
2023-02-15T01:10:00.995Z,58.32
2023-02-15T01:11:00.967Z,60.67
2023-02-15T01:12:00.952Z,58.47
2023-02-15T01:13:00.953Z,59.39
2023-02-15T01:14:00.959Z,57.82
2023-02-15T01:15:00.938Z,56.27
2023-02-15T01:16:01.258Z,57.20
2023-02-15T01:17:00.912Z,58.52
2023-02-15T01:18:00.905Z,57.25
2023-02-15T01:19:00.894Z,59.71
2023-02-15T01:20:00.889Z,62.35
2023-02-15T01:21:00.915Z,60.53
2023-02-15T01:22:00.871Z,60.80
2023-02-15T01:23:00.866Z,56.88
2023-02-15T01:24:00.860Z,58.67
2023-02-15T01:25:00.848Z,61.17
2023-02-15T01:26:01.284Z,61.37
2023-02-15T01:27:00.850Z,56.75
2023-02-15T01:28:00.824Z,58.23
2023-02-15T01:29:00.823Z,60.83
2023-02-15T01:30:00.828Z,57.07
2023-02-15T01:31:00.888Z,59.99
2023-02-15T01:32:00.880Z,58.92
2023-02-15T01:33:00.776Z,60.19
2023-02-15T01:34:00.767Z,60.52
2023-02-15T01:35:00.800Z,60.01
2023-02-15T01:36:01.060Z,57.59
2023-02-15T01:37:00.742Z,60.67
2023-02-15T01:38:00.738Z,60.80
2023-02-15T01:39:00.735Z,61.56
2023-02-15T01:40:00.720Z,61.31
2023-02-15T01:41:00.724Z,58.69
2023-02-15T01:42:00.717Z,60.07
2023-02-15T01:43:00.700Z,57.32
2023-02-15T01:44:00.718Z,58.54
2023-02-15T01:45:00.672Z,58.67
2023-02-15T01:46:01.093Z,60.47
2023-02-15T01:47:00.655Z,59.35
2023-02-15T01:48:00.651Z,56.74
2023-02-15T01:49:00.637Z,59.07
2023-02-15T01:50:00.634Z,59.24
2023-02-15T01:51:00.965Z,60.64
2023-02-15T01:52:00.617Z,58.33
2023-02-15T01:53:00.598Z,60.75
2023-02-15T01:54:00.590Z,62.16
2023-02-15T01:55:00.587Z,60.45
2023-02-15T01:56:00.691Z,61.08
2023-02-15T01:57:00.570Z,58.99
2023-02-15T01:58:00.558Z,60.86
2023-02-15T01:59:00.553Z,58.68
2023-02-15T02:00:00.540Z,61.89
2023-02-15T02:01:01.344Z,62.79
2023-02-15T02:02:00.534Z,59.55
2023-02-15T02:03:00.541Z,59.52
2023-02-15T02:04:00.509Z,60.45
2023-02-15T02:05:00.508Z,60.55
2023-02-15T02:06:00.929Z,62.64
2023-02-15T02:07:00.481Z,61.38
2023-02-15T02:08:00.471Z,62.73
2023-02-15T02:09:00.458Z,60.49
2023-02-15T02:10:00.456Z,59.67
2023-02-15T02:11:00.534Z,59.95
2023-02-15T02:12:01.439Z,61.34
2023-02-15T02:13:00.419Z,60.67
2023-02-15T02:14:00.419Z,58.74
2023-02-15T02:15:00.418Z,61.14
2023-02-15T02:16:00.857Z,62.64
2023-02-15T02:17:00.389Z,60.76
2023-02-15T02:18:00.377Z,61.30
2023-02-15T02:19:00.363Z,61.83
2023-02-15T02:20:00.358Z,59.94
2023-02-15T02:21:00.367Z,62.47
2023-02-15T02:22:00.336Z,61.08
2023-02-15T02:23:00.332Z,61.47
2023-02-15T02:24:00.327Z,59.96
2023-02-15T02:25:00.318Z,61.04
2023-02-15T02:26:00.791Z,60.45
2023-02-15T02:27:00.292Z,59.94
2023-02-15T02:28:00.283Z,62.37
2023-02-15T02:29:00.285Z,60.38
2023-02-15T02:30:00.405Z,61.21
2023-02-15T02:31:00.325Z,60.45
2023-02-15T02:32:00.316Z,61.61
2023-02-15T02:33:00.241Z,59.27
2023-02-15T02:34:00.228Z,63.52
2023-02-15T02:35:00.216Z,61.62
2023-02-15T02:36:00.607Z,59.07
2023-02-15T02:37:00.218Z,58.59
2023-02-15T02:38:00.196Z,59.23
2023-02-15T02:39:00.194Z,61.38
2023-02-15T02:40:00.179Z,61.07
2023-02-15T02:41:00.200Z,59.73
2023-02-15T02:42:00.161Z,59.97
2023-02-15T02:43:00.154Z,61.45
2023-02-15T02:44:00.155Z,60.55
2023-02-15T02:45:00.137Z,59.79
2023-02-15T02:46:00.497Z,59.43
2023-02-15T02:47:00.118Z,60.16
2023-02-15T02:48:00.164Z,58.99
2023-02-15T02:49:00.127Z,60.96
2023-02-15T02:50:00.101Z,61.34
2023-02-15T02:51:00.101Z,61.51
2023-02-15T02:52:00.099Z,61.52
2023-02-15T02:53:00.097Z,62.55
2023-02-15T02:54:00.058Z,61.07
2023-02-15T02:55:00.058Z,61.43
2023-02-15T02:56:00.554Z,60.57
2023-02-15T02:57:00.030Z,62.38
2023-02-15T02:58:00.009Z,62.97
2023-02-15T02:59:00.011Z,60.24
2023-02-15T02:59:59.999Z,58.06
2023-02-15T03:01:00.017Z,59.93
2023-02-15T03:02:00.018Z,63.50
2023-02-15T03:02:59.995Z,62.09
2023-02-15T03:03:59.967Z,60.24
2023-02-15T03:04:59.950Z,62.30
2023-02-15T03:06:00.231Z,59.20
2023-02-15T03:06:59.960Z,58.18
2023-02-15T03:07:59.929Z,57.71
2023-02-15T03:08:59.923Z,61.69
2023-02-15T03:09:59.904Z,62.75
2023-02-15T03:10:59.916Z,60.66
2023-02-15T03:11:59.888Z,60.71
2023-02-15T03:12:59.889Z,59.80
2023-02-15T03:13:59.868Z,60.05
2023-02-15T03:14:59.863Z,62.24
2023-02-15T03:16:00.236Z,62.03
2023-02-15T03:16:59.839Z,62.21
2023-02-15T03:17:59.834Z,63.25
2023-02-15T03:18:59.826Z,62.30
2023-02-15T03:19:59.816Z,60.78
2023-02-15T03:20:59.836Z,62.48
2023-02-15T03:21:59.781Z,63.52
2023-02-15T03:23:00.782Z,59.62
2023-02-15T03:23:59.774Z,61.71
2023-02-15T03:24:59.760Z,61.09
2023-02-15T03:26:00.134Z,59.84
2023-02-15T03:26:59.762Z,62.21
2023-02-15T03:27:59.752Z,60.09
2023-02-15T03:28:59.736Z,63.72
2023-02-15T03:29:59.756Z,62.79
2023-02-15T03:30:59.847Z,60.55
2023-02-15T03:31:59.878Z,63.12
2023-02-15T03:32:59.698Z,62.64
2023-02-15T03:33:59.687Z,64.52
2023-02-15T03:34:59.681Z,62.04
2023-02-15T03:35:59.952Z,61.22
2023-02-15T03:36:59.677Z,61.56
2023-02-15T03:37:59.649Z,62.56
2023-02-15T03:38:59.642Z,62.69
2023-02-15T03:39:59.630Z,63.21
2023-02-15T03:40:59.618Z,64.71
2023-02-15T03:41:59.634Z,62.83
2023-02-15T03:42:59.604Z,63.90
2023-02-15T03:43:59.597Z,62.51
2023-02-15T03:44:59.581Z,64.21
2023-02-15T03:45:59.928Z,62.69
2023-02-15T03:46:59.777Z,63.47
2023-02-15T03:47:59.561Z,64.62
2023-02-15T03:48:59.553Z,60.40
2023-02-15T03:49:59.539Z,60.31
2023-02-15T03:50:59.564Z,64.41
2023-02-15T03:51:59.539Z,65.23
2023-02-15T03:52:59.501Z,62.34
2023-02-15T03:53:59.489Z,61.66
2023-02-15T03:54:59.480Z,60.94
2023-02-15T03:55:59.663Z,63.32
2023-02-15T03:56:59.461Z,62.37
2023-02-15T03:57:59.454Z,63.10
2023-02-15T03:58:59.447Z,61.79
2023-02-15T03:59:59.445Z,62.13
2023-02-15T04:00:59.465Z,62.03
2023-02-15T04:01:59.440Z,62.68
2023-02-15T04:02:59.421Z,65.23
2023-02-15T04:03:59.402Z,65.80
2023-02-15T04:04:59.405Z,64.90
2023-02-15T04:05:59.542Z,64.54
2023-02-15T04:06:59.385Z,63.79
2023-02-15T04:07:59.355Z,64.18
2023-02-15T04:08:59.357Z,62.55
2023-02-15T04:09:59.357Z,62.54
2023-02-15T04:10:59.341Z,61.75
2023-02-15T04:11:59.365Z,62.09
2023-02-15T04:12:59.341Z,63.50
2023-02-15T04:13:59.307Z,62.56
2023-02-15T04:15:31.205Z,63.80
2023-02-15T04:15:59.536Z,65.05
2023-02-15T04:16:59.313Z,63.72
2023-02-15T04:17:59.297Z,63.76
2023-02-15T04:18:59.277Z,64.73
2023-02-15T04:19:59.291Z,64.14
2023-02-15T04:20:59.233Z,63.89
2023-02-15T04:21:59.254Z,63.89
2023-02-15T04:22:59.224Z,63.73
2023-02-15T04:24:00.212Z,65.13
2023-02-15T04:24:59.203Z,65.42
2023-02-15T04:25:59.308Z,64.83
2023-02-15T04:26:59.204Z,65.11
2023-02-15T04:27:59.166Z,66.07
2023-02-15T04:28:59.191Z,65.85
2023-02-15T04:29:59.217Z,63.83
2023-02-15T04:30:59.165Z,65.72
2023-02-15T04:31:59.213Z,66.69
2023-02-15T04:32:59.124Z,65.33
2023-02-15T04:33:59.137Z,65.83
2023-02-15T04:34:59.116Z,65.74
2023-02-15T04:35:59.351Z,66.68
2023-02-15T04:36:59.093Z,67.68
2023-02-15T04:37:59.068Z,64.49
2023-02-15T04:38:59.069Z,65.10
2023-02-15T04:39:59.061Z,67.72
2023-02-15T04:40:59.051Z,68.32
2023-02-15T04:41:59.062Z,67.05
2023-02-15T04:42:59.028Z,66.42
2023-02-15T04:43:59.039Z,66.78
2023-02-15T04:44:59.004Z,66.17
2023-02-15T04:45:59.042Z,67.72
2023-02-15T04:46:59.012Z,66.36
2023-02-15T04:47:58.973Z,65.82
2023-02-15T04:48:58.976Z,66.97
2023-02-15T04:49:58.977Z,65.85
2023-02-15T04:50:58.946Z,66.61
2023-02-15T04:51:58.978Z,65.38
2023-02-15T04:52:58.937Z,65.47
2023-02-15T04:53:58.949Z,64.10
2023-02-15T04:54:58.908Z,65.73
2023-02-15T04:55:58.904Z,63.98
2023-02-15T04:56:58.954Z,65.51
2023-02-15T04:57:58.901Z,65.17
2023-02-15T04:58:58.876Z,65.46
2023-02-15T04:59:58.877Z,64.87
2023-02-15T05:00:58.898Z,62.68
2023-02-15T05:01:58.889Z,65.18
2023-02-15T05:02:58.850Z,64.16
2023-02-15T05:03:58.928Z,64.20
2023-02-15T05:04:58.831Z,65.36
2023-02-15T05:05:58.876Z,65.60
2023-02-15T05:06:58.823Z,66.40
2023-02-15T05:07:58.800Z,65.56
2023-02-15T05:08:58.811Z,66.57
2023-02-15T05:09:58.779Z,65.74
2023-02-15T05:10:58.776Z,64.31
2023-02-15T05:11:58.772Z,64.56
2023-02-15T05:12:58.742Z,65.65
2023-02-15T05:13:58.735Z,67.36
2023-02-15T05:14:58.761Z,66.62
2023-02-15T05:15:58.731Z,66.63
2023-02-15T05:16:58.738Z,65.85
2023-02-15T05:17:58.701Z,67.50
2023-02-15T05:18:58.701Z,67.71
2023-02-15T05:19:58.681Z,67.35
2023-02-15T05:20:58.683Z,65.50
2023-02-15T05:21:58.687Z,66.22
2023-02-15T05:22:58.656Z,67.43
2023-02-15T05:23:58.643Z,67.14
2023-02-15T05:24:58.652Z,67.02
2023-02-15T05:25:58.631Z,66.51
2023-02-15T05:26:58.644Z,65.32
2023-02-15T05:27:58.600Z,65.33
2023-02-15T05:28:58.600Z,65.05
2023-02-15T05:29:58.691Z,65.26
2023-02-15T05:30:58.870Z,65.55
2023-02-15T05:31:58.785Z,66.13
2023-02-15T05:32:58.561Z,64.50
2023-02-15T05:33:58.555Z,66.35
2023-02-15T05:34:58.541Z,67.11
2023-02-15T05:35:58.538Z,67.27
2023-02-15T05:36:58.547Z,65.04
2023-02-15T05:37:58.514Z,67.65
2023-02-15T05:38:58.513Z,68.17
2023-02-15T05:39:58.492Z,68.02
2023-02-15T05:40:58.495Z,67.84
2023-02-15T05:41:58.512Z,67.17
2023-02-15T05:42:58.470Z,68.72
2023-02-15T05:43:58.473Z,69.28
2023-02-15T05:44:58.459Z,67.85
2023-02-15T05:45:58.542Z,68.73
2023-02-15T05:46:58.453Z,67.73
2023-02-15T05:47:58.426Z,67.32
2023-02-15T05:48:58.415Z,68.62
2023-02-15T05:49:58.411Z,67.97
2023-02-15T05:50:58.406Z,66.70
2023-02-15T05:51:58.438Z,67.10
2023-02-15T05:52:58.377Z,68.49
2023-02-15T05:53:58.381Z,67.51
2023-02-15T05:54:58.359Z,67.85
2023-02-15T05:55:58.386Z,67.62
2023-02-15T05:56:58.375Z,66.24
2023-02-15T05:57:58.333Z,66.53
2023-02-15T05:58:58.313Z,66.77
2023-02-15T05:59:58.319Z,65.55
2023-02-15T06:00:58.304Z,66.77
2023-02-15T06:01:58.300Z,66.10
2023-02-15T06:02:58.278Z,67.03
2023-02-15T06:03:58.266Z,67.78
2023-02-15T06:04:59.263Z,66.88
2023-02-15T06:05:58.257Z,66.93
2023-02-15T06:06:58.272Z,66.89
2023-02-15T06:07:58.242Z,67.83
2023-02-15T06:08:58.242Z,66.78
2023-02-15T06:09:58.208Z,66.76
2023-02-15T06:10:58.222Z,68.68
2023-02-15T06:11:58.203Z,66.60
2023-02-15T06:12:58.195Z,65.93
2023-02-15T06:13:58.178Z,65.09
2023-02-15T06:14:58.160Z,67.21
2023-02-15T06:15:58.224Z,66.59
2023-02-15T06:16:58.175Z,64.85
2023-02-15T06:17:58.139Z,66.25
2023-02-15T06:18:58.128Z,66.18
2023-02-15T06:19:58.114Z,66.19
2023-02-15T06:20:58.109Z,66.55
2023-02-15T06:21:58.124Z,66.05
2023-02-15T06:22:58.092Z,67.63
2023-02-15T06:23:58.104Z,65.78
2023-02-15T06:24:58.080Z,65.04
2023-02-15T06:25:58.062Z,65.72
2023-02-15T06:26:58.074Z,65.40
2023-02-15T06:27:58.055Z,66.45
2023-02-15T06:28:58.063Z,65.89
2023-02-15T06:29:58.092Z,67.37
2023-02-15T06:30:58.195Z,66.88
2023-02-15T06:31:58.135Z,66.27
2023-02-15T06:32:58.019Z,66.29
2023-02-15T06:33:58.002Z,67.22
2023-02-15T06:34:57.979Z,65.94
2023-02-15T06:35:57.973Z,67.61
2023-02-15T06:36:57.988Z,66.12
2023-02-15T06:37:57.954Z,66.51
2023-02-15T06:38:57.950Z,66.92
2023-02-15T06:39:57.938Z,66.35
2023-02-15T06:40:57.949Z,66.09
2023-02-15T06:41:57.911Z,66.74
2023-02-15T06:42:57.912Z,67.26
2023-02-15T06:43:57.899Z,67.10
2023-02-15T06:44:57.896Z,66.95
2023-02-15T06:45:57.918Z,66.85
2023-02-15T06:46:57.893Z,68.07
2023-02-15T06:47:57.860Z,66.38
2023-02-15T06:48:57.863Z,66.91
2023-02-15T06:49:57.856Z,65.57
2023-02-15T06:50:57.837Z,66.40
2023-02-15T06:51:57.854Z,66.46
2023-02-15T06:52:57.825Z,66.41
2023-02-15T06:53:57.819Z,66.15
2023-02-15T06:54:57.804Z,65.54
2023-02-15T06:55:57.809Z,66.96
2023-02-15T06:56:57.815Z,66.19
2023-02-15T06:57:57.774Z,65.44
2023-02-15T06:58:57.768Z,64.90
2023-02-15T06:59:57.746Z,66.29
2023-02-15T07:00:57.749Z,64.96
2023-02-15T07:01:57.747Z,65.28
2023-02-15T07:02:57.726Z,65.30
2023-02-15T07:03:57.708Z,66.74
2023-02-15T07:04:57.812Z,65.08
2023-02-15T07:05:57.694Z,64.82
2023-02-15T07:06:57.676Z,66.17
2023-02-15T07:07:57.677Z,66.50
2023-02-15T07:08:57.655Z,66.12
2023-02-15T07:09:57.646Z,65.77
2023-02-15T07:10:57.636Z,66.45
2023-02-15T07:11:57.636Z,65.99
2023-02-15T07:12:57.645Z,65.30
2023-02-15T07:13:57.601Z,65.97
2023-02-15T07:14:57.600Z,65.93
2023-02-15T07:15:57.649Z,66.07
2023-02-15T07:16:57.584Z,64.86
2023-02-15T07:17:57.580Z,65.00
2023-02-15T07:18:57.573Z,66.82
2023-02-15T07:19:57.558Z,64.91
2023-02-15T07:20:57.536Z,66.35
2023-02-15T07:21:57.524Z,65.46
2023-02-15T07:22:57.537Z,65.27
2023-02-15T07:23:57.506Z,65.83
2023-02-15T07:24:57.521Z,64.46
2023-02-15T07:25:57.487Z,65.16
2023-02-15T07:26:57.484Z,65.42
2023-02-15T07:27:57.501Z,64.08
2023-02-15T07:28:57.470Z,65.67
2023-02-15T07:29:57.501Z,64.78
2023-02-15T07:30:57.460Z,65.59
2023-02-15T07:31:57.566Z,65.74
2023-02-15T07:32:57.492Z,66.33
2023-02-15T07:33:57.421Z,66.74
2023-02-15T07:34:57.410Z,65.13
2023-02-15T07:35:57.404Z,66.60
2023-02-15T07:36:57.397Z,65.26
2023-02-15T07:37:57.395Z,65.74
2023-02-15T07:38:57.366Z,65.04
2023-02-15T07:39:58.373Z,65.04
2023-02-15T07:40:57.360Z,64.04
2023-02-15T07:41:57.348Z,65.47
2023-02-15T07:42:57.353Z,64.59
2023-02-15T07:43:57.334Z,65.32
2023-02-15T07:44:57.333Z,65.38
2023-02-15T07:45:57.323Z,65.57
2023-02-15T07:46:57.313Z,66.15
2023-02-15T07:47:57.349Z,66.03
2023-02-15T07:48:57.301Z,65.39
2023-02-15T07:49:57.280Z,65.79
2023-02-15T07:50:57.323Z,65.79
2023-02-15T07:51:57.266Z,65.67
2023-02-15T07:52:57.279Z,66.46
2023-02-15T07:53:57.239Z,65.55
2023-02-15T07:54:57.266Z,65.46
2023-02-15T07:55:57.222Z,66.74
2023-02-15T07:56:57.207Z,65.39
2023-02-15T07:57:57.229Z,65.69
2023-02-15T07:58:57.206Z,66.15
2023-02-15T07:59:57.189Z,64.90
2023-02-15T08:00:57.191Z,65.92
2023-02-15T08:01:57.314Z,65.82
2023-02-15T08:02:57.221Z,64.95
2023-02-15T08:03:57.732Z,64.81
2023-02-15T08:04:57.142Z,66.17
2023-02-15T08:05:57.136Z,66.08
2023-02-15T08:06:57.129Z,64.33
2023-02-15T08:07:57.136Z,65.14
2023-02-15T08:08:57.109Z,65.28
2023-02-15T08:09:57.098Z,66.22
2023-02-15T08:10:57.087Z,65.66
2023-02-15T08:11:57.089Z,64.56
2023-02-15T08:12:57.181Z,67.03
2023-02-15T08:13:57.092Z,66.54
2023-02-15T08:14:57.080Z,64.99
2023-02-15T08:15:57.080Z,64.63
2023-02-15T08:16:57.114Z,64.60
2023-02-15T08:17:57.081Z,65.44
2023-02-15T08:18:57.029Z,64.23
2023-02-15T08:19:57.033Z,64.95
2023-02-15T08:20:57.000Z,66.18
2023-02-15T08:21:56.994Z,64.77
2023-02-15T08:22:57.040Z,64.21
2023-02-15T08:23:56.979Z,65.37
2023-02-15T08:24:56.969Z,66.28
2023-02-15T08:25:57.967Z,64.98
2023-02-15T08:26:57.007Z,64.46
2023-02-15T08:27:56.961Z,64.48
2023-02-15T08:28:56.964Z,67.80
2023-02-15T08:29:56.987Z,66.31
2023-02-15T08:30:56.965Z,64.79
2023-02-15T08:31:56.973Z,65.57
2023-02-15T08:32:56.948Z,64.11
2023-02-15T08:33:56.899Z,66.44
2023-02-15T08:34:56.876Z,64.62
2023-02-15T08:35:56.876Z,64.95
2023-02-15T08:36:56.871Z,65.34
2023-02-15T08:37:56.880Z,65.23
2023-02-15T08:38:56.851Z,64.05
2023-02-15T08:39:56.844Z,65.76
2023-02-15T08:40:56.834Z,64.96
2023-02-15T08:41:56.865Z,64.06
2023-02-15T08:42:56.830Z,66.38
2023-02-15T08:43:56.812Z,65.51
2023-02-15T08:44:56.802Z,64.22
2023-02-15T08:45:56.889Z,65.85
2023-02-15T08:46:56.779Z,65.84
2023-02-15T08:47:56.818Z,67.11
2023-02-15T08:48:56.763Z,66.32
2023-02-15T08:49:56.755Z,65.99
2023-02-15T08:50:56.740Z,66.07
2023-02-15T08:51:56.771Z,65.62
2023-02-15T08:52:56.724Z,65.20
2023-02-15T08:53:56.717Z,65.96
2023-02-15T08:54:56.709Z,66.36
2023-02-15T08:55:56.725Z,65.88
2023-02-15T08:56:56.728Z,65.66
2023-02-15T08:57:56.709Z,66.44
2023-02-15T08:58:56.677Z,65.26
2023-02-15T08:59:56.669Z,65.48
2023-02-15T09:00:56.686Z,65.44
2023-02-15T09:01:56.740Z,65.13
2023-02-15T09:02:56.661Z,65.93
2023-02-15T09:03:56.642Z,65.46
2023-02-15T09:04:56.630Z,62.87
2023-02-15T09:05:56.648Z,66.46
2023-02-15T09:06:56.615Z,65.49
2023-02-15T09:07:56.708Z,66.00
2023-02-15T09:08:56.715Z,65.78
2023-02-15T09:09:56.597Z,64.95
2023-02-15T09:10:56.579Z,65.27
2023-02-15T09:11:59.477Z,63.80
2023-02-15T09:12:57.583Z,63.93
2023-02-15T09:13:56.556Z,66.05
2023-02-15T09:14:56.552Z,65.95
2023-02-15T09:15:56.549Z,64.91
2023-02-15T09:16:56.730Z,66.54
2023-02-15T09:17:56.536Z,67.50
2023-02-15T09:18:56.508Z,65.78
2023-02-15T09:19:57.507Z,65.94
2023-02-15T09:20:56.515Z,65.15
2023-02-15T09:21:56.501Z,66.67
2023-02-15T09:22:58.544Z,65.73
2023-02-15T09:23:57.505Z,64.39
2023-02-15T09:24:56.464Z,64.69
2023-02-15T09:25:56.460Z,64.68
2023-02-15T09:26:56.462Z,65.44
2023-02-15T09:27:56.460Z,64.63
2023-02-15T09:28:56.503Z,64.74
2023-02-15T09:29:56.452Z,64.38
2023-02-15T09:30:56.479Z,65.05
2023-02-15T09:31:56.449Z,64.49
2023-02-15T09:32:56.455Z,66.25
2023-02-15T09:33:56.392Z,65.24
2023-02-15T09:34:56.382Z,65.77
2023-02-15T09:35:56.379Z,66.17
2023-02-15T09:36:56.372Z,65.53
2023-02-15T09:37:56.373Z,65.28
2023-02-15T09:38:56.377Z,64.47
2023-02-15T09:39:56.375Z,63.64
2023-02-15T09:40:56.340Z,67.13
2023-02-15T09:41:56.383Z,63.80
2023-02-15T09:42:56.764Z,63.64
2023-02-15T09:43:56.319Z,64.46
2023-02-15T09:44:57.218Z,63.82
2023-02-15T09:45:57.245Z,64.85
2023-02-15T09:46:56.293Z,66.12
2023-02-15T09:47:56.308Z,66.50
2023-02-15T09:48:56.293Z,64.29
2023-02-15T09:49:56.267Z,66.07
2023-02-15T09:50:56.267Z,66.27
2023-02-15T09:51:56.251Z,65.62
2023-02-15T09:52:56.284Z,64.90
2023-02-15T09:53:56.269Z,64.85
2023-02-15T09:54:56.226Z,64.69
2023-02-15T09:55:56.224Z,65.70
2023-02-15T09:56:56.219Z,64.20
2023-02-15T09:57:56.210Z,63.76
2023-02-15T09:58:56.215Z,65.04
2023-02-15T09:59:56.202Z,65.64
2023-02-15T10:00:56.265Z,65.35
2023-02-15T10:01:57.186Z,66.33
2023-02-15T10:02:56.177Z,65.63
2023-02-15T10:03:56.236Z,65.00
2023-02-15T10:04:56.272Z,64.70
2023-02-15T10:05:56.152Z,65.63
2023-02-15T10:06:56.146Z,64.60
2023-02-15T10:07:56.163Z,64.84
2023-02-15T10:08:56.160Z,64.12
2023-02-15T10:09:56.154Z,64.97
2023-02-15T10:10:56.168Z,65.86
2023-02-15T10:11:56.149Z,64.68
2023-02-15T10:12:56.105Z,63.85
2023-02-15T10:13:56.113Z,64.46
2023-02-15T10:15:06.923Z,64.14
2023-02-15T10:15:56.083Z,65.27
2023-02-15T10:16:56.124Z,65.37
2023-02-15T10:17:56.058Z,65.27
2023-02-15T10:18:56.068Z,65.23
2023-02-15T10:19:56.107Z,64.30
2023-02-15T10:20:56.036Z,64.51
2023-02-15T10:21:56.030Z,65.82
2023-02-15T10:22:56.035Z,65.03
2023-02-15T10:23:56.032Z,65.33
2023-02-15T10:24:56.005Z,66.61
2023-02-15T10:25:56.001Z,65.36
2023-02-15T10:26:55.990Z,65.50
2023-02-15T10:27:56.016Z,64.83
2023-02-15T10:28:55.998Z,65.51
2023-02-15T10:29:56.042Z,65.40
2023-02-15T10:30:56.162Z,66.05
2023-02-15T10:31:56.134Z,67.08
2023-02-15T10:32:55.951Z,66.66
2023-02-15T10:33:55.956Z,65.40
2023-02-15T10:34:55.928Z,64.99
2023-02-15T10:35:55.923Z,65.72
2023-02-15T10:36:55.908Z,66.26
2023-02-15T10:37:55.911Z,65.08
2023-02-15T10:38:55.907Z,64.65
2023-02-15T10:39:55.894Z,66.14
2023-02-15T10:40:55.878Z,65.52
2023-02-15T10:41:55.873Z,67.35
2023-02-15T10:42:55.853Z,66.50
2023-02-15T10:43:55.869Z,67.27
2023-02-15T10:44:55.832Z,67.06
2023-02-15T10:45:55.865Z,65.86
2023-02-15T10:46:55.831Z,66.63
2023-02-15T10:47:55.819Z,66.57
2023-02-15T10:48:55.821Z,65.52
2023-02-15T10:49:55.797Z,65.12
2023-02-15T10:50:55.791Z,65.30
2023-02-15T10:51:55.782Z,64.53
2023-02-15T10:52:55.769Z,65.15
2023-02-15T10:53:55.778Z,64.49
2023-02-15T10:54:55.762Z,64.67
2023-02-15T10:55:55.754Z,65.93
2023-02-15T10:56:55.744Z,65.26
2023-02-15T10:57:55.733Z,65.14
2023-02-15T10:58:55.783Z,65.81
2023-02-15T10:59:55.710Z,65.43
2023-02-15T11:00:55.703Z,65.00
2023-02-15T11:01:55.758Z,65.59
2023-02-15T11:02:55.689Z,65.41
2023-02-15T11:03:55.697Z,65.76
2023-02-15T11:04:55.698Z,65.90
2023-02-15T11:05:55.656Z,64.80
2023-02-15T11:06:55.662Z,64.95
2023-02-15T11:07:55.645Z,65.37
2023-02-15T11:08:55.645Z,66.02
2023-02-15T11:09:56.627Z,66.15
2023-02-15T11:10:55.614Z,65.83
2023-02-15T11:11:55.609Z,65.44
2023-02-15T11:12:55.608Z,67.54
2023-02-15T11:13:55.608Z,66.90
2023-02-15T11:14:55.586Z,66.36
2023-02-15T11:15:55.609Z,67.22
2023-02-15T11:16:55.571Z,67.49
2023-02-15T11:17:55.554Z,67.29
2023-02-15T11:18:55.568Z,65.33
2023-02-15T11:19:55.566Z,65.54
2023-02-15T11:20:55.529Z,65.48
2023-02-15T11:21:56.536Z,65.79
2023-02-15T11:22:55.521Z,66.13
2023-02-15T11:23:55.594Z,65.84
2023-02-15T11:24:55.531Z,67.03
2023-02-15T11:25:55.501Z,66.01
2023-02-15T11:26:55.487Z,66.42
2023-02-15T11:27:55.473Z,65.34
2023-02-15T11:28:55.489Z,65.18
2023-02-15T11:29:55.492Z,65.18
2023-02-15T11:30:55.613Z,65.72
2023-02-15T11:31:55.623Z,66.17
2023-02-15T11:32:55.431Z,65.19
2023-02-15T11:33:55.431Z,65.69
2023-02-15T11:34:55.401Z,64.13
2023-02-15T11:35:55.394Z,65.16
2023-02-15T11:36:55.383Z,65.29
2023-02-15T11:37:55.373Z,65.26
2023-02-15T11:38:55.386Z,65.40
2023-02-15T11:39:55.370Z,65.27
2023-02-15T11:40:55.356Z,64.76
2023-02-15T11:41:55.372Z,65.48
2023-02-15T11:42:56.182Z,64.96
2023-02-15T11:43:56.355Z,66.28
2023-02-15T11:44:55.323Z,66.64
2023-02-15T11:45:55.307Z,65.49
2023-02-15T11:46:55.294Z,65.39
2023-02-15T11:47:55.293Z,65.36
2023-02-15T11:48:55.341Z,66.16
2023-02-15T11:49:55.288Z,66.86
2023-02-15T11:50:55.261Z,66.06
2023-02-15T11:51:55.327Z,67.10
2023-02-15T11:52:55.239Z,65.20
2023-02-15T11:53:55.253Z,64.93
2023-02-15T11:54:55.225Z,65.37
2023-02-15T11:55:55.211Z,67.16
2023-02-15T11:56:55.226Z,66.12
2023-02-15T11:57:55.194Z,66.46
2023-02-15T11:58:55.195Z,65.50
2023-02-15T11:59:55.176Z,66.93
2023-02-15T12:00:55.216Z,67.02
2023-02-15T12:01:55.163Z,65.34
2023-02-15T12:02:55.232Z,66.23
2023-02-15T12:03:55.171Z,64.69
2023-02-15T12:04:55.146Z,65.05
2023-02-15T12:05:55.156Z,64.95
2023-02-15T12:06:55.116Z,65.77
2023-02-15T12:07:55.134Z,66.04
2023-02-15T12:08:55.113Z,66.63
2023-02-15T12:09:55.089Z,66.27
2023-02-15T12:10:55.072Z,66.98
2023-02-15T12:11:55.052Z,65.48
2023-02-15T12:12:56.046Z,65.92
2023-02-15T12:13:55.072Z,65.71
2023-02-15T12:14:55.028Z,65.14
2023-02-15T12:15:55.079Z,65.40
2023-02-15T12:16:55.019Z,65.61
2023-02-15T12:17:55.024Z,66.66
2023-02-15T12:18:55.009Z,66.22
2023-02-15T12:19:54.979Z,66.79
2023-02-15T12:20:54.973Z,65.69
2023-02-15T12:21:54.971Z,66.14
2023-02-15T12:22:54.953Z,64.77
2023-02-15T12:23:54.970Z,66.65
2023-02-15T12:24:54.945Z,67.03
2023-02-15T12:25:54.915Z,66.83
2023-02-15T12:26:54.917Z,67.74
2023-02-15T12:27:54.903Z,67.20
2023-02-15T12:28:54.918Z,66.18
2023-02-15T12:29:54.905Z,66.22
2023-02-15T12:30:54.885Z,66.27
2023-02-15T12:31:54.986Z,67.17
2023-02-15T12:32:54.860Z,64.91
2023-02-15T12:33:54.920Z,66.19
2023-02-15T12:34:54.829Z,66.53
2023-02-15T12:35:54.822Z,66.44
2023-02-15T12:36:54.830Z,66.38
2023-02-15T12:37:54.806Z,66.18
2023-02-15T12:38:59.501Z,66.04
2023-02-15T12:39:55.795Z,66.19
2023-02-15T12:40:54.763Z,66.09
2023-02-15T12:41:54.780Z,66.21
2023-02-15T12:42:54.776Z,66.27
2023-02-15T12:43:54.788Z,66.76
2023-02-15T12:44:54.941Z,67.33
2023-02-15T12:45:54.764Z,65.21
2023-02-15T12:46:54.822Z,65.58
2023-02-15T12:47:54.720Z,66.76
2023-02-15T12:48:54.704Z,66.82
2023-02-15T12:49:54.722Z,66.73
2023-02-15T12:50:55.079Z,66.30
2023-02-15T12:51:55.674Z,64.82